createdAt,value
2024-05-09T00:00:18.517Z,34.66
2024-05-09T00:01:15.047Z,34.67
2024-05-09T00:02:14.089Z,34.65
2024-05-09T00:03:14.022Z,34.65
2024-05-09T00:04:13.965Z,34.69
2024-05-09T00:05:14.069Z,34.68
2024-05-09T00:06:14.027Z,34.65
2024-05-09T00:07:13.871Z,34.63
2024-05-09T00:08:13.935Z,34.64
2024-05-09T00:09:13.850Z,34.62
2024-05-09T00:10:22.398Z,34.63
2024-05-09T00:11:14.898Z,34.66
2024-05-09T00:12:13.923Z,34.64
2024-05-09T00:13:13.750Z,34.64
2024-05-09T00:14:13.788Z,34.61
2024-05-09T00:15:13.707Z,34.64
2024-05-09T00:16:13.678Z,34.64
2024-05-09T00:17:13.758Z,34.61
2024-05-09T00:18:13.786Z,34.61
2024-05-09T00:19:13.760Z,34.68
2024-05-09T00:20:20.188Z,34.65
2024-05-09T00:21:14.630Z,34.64
2024-05-09T00:22:13.588Z,34.64
2024-05-09T00:23:14.061Z,34.64
2024-05-09T00:24:13.582Z,34.65
2024-05-09T00:25:13.537Z,34.64
2024-05-09T00:26:13.597Z,34.64
2024-05-09T00:27:13.586Z,34.63
2024-05-09T00:28:13.523Z,34.64
2024-05-09T00:29:13.528Z,34.64
2024-05-09T00:30:21.002Z,34.61
2024-05-09T00:31:14.448Z,34.63
2024-05-09T00:32:13.496Z,34.63
2024-05-09T00:33:13.667Z,34.65
2024-05-09T00:34:13.471Z,34.67
2024-05-09T00:35:13.387Z,34.66
2024-05-09T00:36:13.370Z,34.63
2024-05-09T00:37:13.337Z,34.61
2024-05-09T00:38:13.353Z,34.66
2024-05-09T00:39:13.331Z,34.64
2024-05-09T00:40:18.756Z,34.66
2024-05-09T00:41:16.315Z,34.65
2024-05-09T00:42:13.264Z,34.62
2024-05-09T00:43:14.389Z,34.61
2024-05-09T00:44:13.380Z,34.61
2024-05-09T00:45:13.206Z,34.60
2024-05-09T00:46:13.224Z,34.60
2024-05-09T00:47:13.302Z,34.58
2024-05-09T00:48:15.356Z,34.59
2024-05-09T00:49:13.196Z,34.60
2024-05-09T00:50:19.228Z,34.62
2024-05-09T00:51:13.190Z,34.66
2024-05-09T00:52:13.093Z,34.58
2024-05-09T00:53:13.179Z,34.56
2024-05-09T00:54:13.045Z,34.57
2024-05-09T00:55:13.025Z,34.58
2024-05-09T00:56:13.062Z,34.62
2024-05-09T00:57:12.974Z,34.58
2024-05-09T00:58:12.958Z,34.59
2024-05-09T00:59:13.024Z,34.58
2024-05-09T01:00:22.567Z,34.58
2024-05-09T01:01:14.000Z,34.57
2024-05-09T01:02:12.976Z,34.57
2024-05-09T01:03:14.246Z,34.58
2024-05-09T01:04:12.915Z,34.57
2024-05-09T01:05:12.947Z,34.58
2024-05-09T01:06:12.822Z,34.57
2024-05-09T01:07:12.804Z,34.57
2024-05-09T01:08:12.903Z,34.56
2024-05-09T01:09:12.779Z,34.56
2024-05-09T01:10:17.432Z,34.58
2024-05-09T01:11:13.804Z,34.59
2024-05-09T01:12:12.841Z,34.56
2024-05-09T01:13:12.788Z,34.59
2024-05-09T01:14:12.693Z,34.60
2024-05-09T01:15:12.686Z,34.60
2024-05-09T01:16:12.636Z,34.57
2024-05-09T01:17:13.163Z,34.56
2024-05-09T01:18:13.704Z,34.58
2024-05-09T01:19:12.722Z,34.59
2024-05-09T01:20:19.826Z,34.56
2024-05-09T01:21:13.846Z,34.54
2024-05-09T01:22:12.518Z,34.56
2024-05-09T01:23:13.359Z,34.55
2024-05-09T01:24:12.491Z,34.55
2024-05-09T01:25:12.466Z,34.57
2024-05-09T01:26:12.515Z,34.56
2024-05-09T01:27:12.489Z,34.59
2024-05-09T01:28:12.524Z,34.58
2024-05-09T01:29:12.603Z,34.55
2024-05-09T01:31:12.457Z,34.54
2024-05-09T01:32:12.587Z,34.54
2024-05-09T01:33:13.207Z,34.55
2024-05-09T01:34:12.463Z,34.55
2024-05-09T01:35:12.479Z,34.56
2024-05-09T01:36:12.411Z,34.56
2024-05-09T01:37:12.405Z,34.55
2024-05-09T01:38:12.428Z,34.57
2024-05-09T01:39:12.374Z,34.56
2024-05-09T01:40:18.394Z,34.55
2024-05-09T01:41:13.427Z,34.56
2024-05-09T01:42:12.357Z,34.55
2024-05-09T01:43:12.481Z,34.57
2024-05-09T01:44:12.363Z,34.54
2024-05-09T01:45:12.307Z,34.52
2024-05-09T01:46:12.278Z,34.51
2024-05-09T01:47:12.365Z,34.53
2024-05-09T01:48:12.451Z,34.53
2024-05-09T01:49:12.490Z,34.53
2024-05-09T01:50:16.333Z,34.54
2024-05-09T01:51:12.224Z,34.58
2024-05-09T01:52:12.165Z,34.56
2024-05-09T01:53:12.662Z,34.51
2024-05-09T01:54:12.121Z,34.53
2024-05-09T01:55:12.076Z,34.55
2024-05-09T01:56:12.182Z,34.54
2024-05-09T01:57:12.050Z,34.52
2024-05-09T01:58:11.994Z,34.53
2024-05-09T01:59:11.984Z,34.55
2024-05-09T02:00:15.638Z,34.55
2024-05-09T02:01:12.021Z,34.54
2024-05-09T02:02:12.081Z,34.53
2024-05-09T02:03:14.704Z,34.55
2024-05-09T02:04:13.063Z,34.56
2024-05-09T02:05:12.080Z,34.56
2024-05-09T02:06:11.918Z,34.54
2024-05-09T02:07:11.830Z,34.54
2024-05-09T02:08:11.807Z,34.51
2024-05-09T02:09:11.746Z,34.51
2024-05-09T02:10:20.036Z,34.53
2024-05-09T02:11:12.875Z,34.52
2024-05-09T02:12:11.798Z,34.52
2024-05-09T02:13:11.645Z,34.56
2024-05-09T02:14:11.671Z,34.51
2024-05-09T02:15:11.607Z,34.51
2024-05-09T02:16:11.593Z,34.52
2024-05-09T02:17:11.628Z,34.53
2024-05-09T02:18:12.009Z,34.53
2024-05-09T02:19:11.721Z,34.54
2024-05-09T02:20:18.789Z,34.52
2024-05-09T02:21:12.538Z,34.51
2024-05-09T02:22:11.474Z,34.50
2024-05-09T02:23:11.549Z,34.52
2024-05-09T02:24:11.413Z,34.51
2024-05-09T02:25:11.384Z,34.52
2024-05-09T02:26:11.473Z,34.52
2024-05-09T02:27:11.332Z,34.49
2024-05-09T02:28:11.326Z,34.51
2024-05-09T02:29:11.474Z,34.47
2024-05-09T02:30:18.795Z,34.47
2024-05-09T02:31:11.348Z,34.49
2024-05-09T02:32:11.716Z,34.51
2024-05-09T02:33:13.358Z,34.50
2024-05-09T02:34:11.467Z,34.50
2024-05-09T02:35:11.392Z,34.50
2024-05-09T02:36:11.151Z,34.50
2024-05-09T02:37:11.146Z,34.49
2024-05-09T02:38:11.287Z,34.50
2024-05-09T02:39:11.118Z,34.46
2024-05-09T02:40:14.745Z,34.46
2024-05-09T02:41:12.123Z,34.48
2024-05-09T02:42:11.053Z,34.48
2024-05-09T02:43:11.762Z,34.44
2024-05-09T02:44:11.030Z,34.48
2024-05-09T02:45:10.965Z,34.42
2024-05-09T02:46:10.966Z,34.48
2024-05-09T02:47:10.986Z,34.51
2024-05-09T02:48:11.670Z,34.50
2024-05-09T02:49:11.044Z,34.48
2024-05-09T02:50:13.440Z,34.45
2024-05-09T02:51:11.929Z,34.45
2024-05-09T02:52:10.833Z,34.45
2024-05-09T02:53:10.873Z,34.44
2024-05-09T02:54:10.790Z,34.45
2024-05-09T02:55:10.768Z,34.44
2024-05-09T02:56:10.790Z,34.47
2024-05-09T02:57:10.742Z,34.44
2024-05-09T02:58:10.878Z,34.44
2024-05-09T02:59:10.778Z,34.45
2024-05-09T03:00:18.464Z,34.45
2024-05-09T03:01:11.812Z,34.47
2024-05-09T03:02:10.766Z,34.44
2024-05-09T03:03:12.973Z,34.45
2024-05-09T03:04:10.639Z,34.47
2024-05-09T03:05:10.595Z,34.44
2024-05-09T03:06:10.519Z,34.45
2024-05-09T03:07:10.516Z,34.44
2024-05-09T03:08:10.675Z,34.47
2024-05-09T03:09:10.465Z,34.48
2024-05-09T03:10:18.298Z,34.46
2024-05-09T03:11:11.568Z,34.44
2024-05-09T03:12:10.556Z,34.43
2024-05-09T03:13:10.391Z,34.42
2024-05-09T03:14:10.415Z,34.44
2024-05-09T03:15:10.329Z,34.44
2024-05-09T03:16:10.329Z,34.48
2024-05-09T03:17:10.414Z,34.48
2024-05-09T03:18:10.520Z,34.40
2024-05-09T03:19:10.380Z,34.44
2024-05-09T03:20:17.518Z,34.44
2024-05-09T03:21:11.356Z,34.43
2024-05-09T03:22:10.220Z,34.39
2024-05-09T03:23:10.543Z,34.43
2024-05-09T03:24:10.181Z,34.42
2024-05-09T03:25:10.179Z,34.43
2024-05-09T03:26:10.191Z,34.42
2024-05-09T03:27:10.133Z,34.45
2024-05-09T03:28:10.101Z,34.45
2024-05-09T03:29:10.114Z,34.41
2024-05-09T03:30:10.156Z,34.41
2024-05-09T03:31:10.046Z,34.43
2024-05-09T03:32:10.109Z,34.44
2024-05-09T03:33:10.512Z,34.43
2024-05-09T03:34:10.020Z,34.42
2024-05-09T03:35:10.001Z,34.41
2024-05-09T03:36:11.269Z,34.41
2024-05-09T03:37:09.964Z,34.41
2024-05-09T03:38:10.135Z,34.40
2024-05-09T03:39:09.894Z,34.39
2024-05-09T03:40:17.526Z,34.40
2024-05-09T03:41:10.892Z,34.41
2024-05-09T03:42:09.848Z,34.40
2024-05-09T03:43:09.823Z,34.41
2024-05-09T03:44:09.898Z,34.43
2024-05-09T03:45:09.804Z,34.42
2024-05-09T03:46:09.769Z,34.43
2024-05-09T03:47:09.781Z,34.42
2024-05-09T03:48:09.989Z,34.44
2024-05-09T03:49:09.785Z,34.38
2024-05-09T03:50:18.012Z,34.40
2024-05-09T03:51:10.768Z,34.44
2024-05-09T03:52:09.668Z,34.41
2024-05-09T03:53:09.734Z,34.42
2024-05-09T03:54:09.630Z,34.43
2024-05-09T03:55:09.599Z,34.40
2024-05-09T03:56:09.626Z,34.41
2024-05-09T03:57:09.574Z,34.39
2024-05-09T03:58:09.573Z,34.38
2024-05-09T03:59:09.617Z,34.37
2024-05-09T04:00:17.796Z,34.41
2024-05-09T04:01:10.545Z,34.43
2024-05-09T04:02:09.549Z,34.39
2024-05-09T04:03:11.662Z,34.41
2024-05-09T04:04:09.503Z,34.41
2024-05-09T04:05:09.439Z,34.40
2024-05-09T04:06:09.428Z,34.42
2024-05-09T04:07:09.412Z,34.41
2024-05-09T04:08:09.782Z,34.40
2024-05-09T04:09:09.359Z,34.38
2024-05-09T04:10:16.787Z,34.40
2024-05-09T04:11:10.441Z,34.41
2024-05-09T04:12:09.433Z,34.37
2024-05-09T04:13:09.341Z,34.41
2024-05-09T04:14:09.383Z,34.42
2024-05-09T04:15:12.879Z,34.35
2024-05-09T04:16:09.307Z,34.36
2024-05-09T04:17:09.350Z,34.37
2024-05-09T04:18:09.521Z,34.39
2024-05-09T04:19:09.377Z,34.37
2024-05-09T04:20:12.460Z,34.37
2024-05-09T04:21:10.413Z,34.38
2024-05-09T04:22:09.234Z,34.36
2024-05-09T04:23:09.670Z,34.37
2024-05-09T04:24:09.188Z,34.35
2024-05-09T04:25:16.405Z,34.37
2024-05-09T04:26:16.411Z,34.39
2024-05-09T04:27:16.405Z,34.36
2024-05-09T04:28:16.399Z,34.36
2024-05-09T04:29:16.498Z,34.32
2024-05-09T04:30:25.482Z,34.34
2024-05-09T04:31:28.519Z,34.42
2024-05-09T04:32:28.757Z,34.40
2024-05-09T04:33:28.712Z,34.36
2024-05-09T04:34:28.633Z,34.38
2024-05-09T04:35:28.630Z,34.37
2024-05-09T04:36:28.571Z,34.34
2024-05-09T04:37:29.112Z,34.33
2024-05-09T04:38:28.651Z,34.35
2024-05-09T04:39:28.641Z,34.32
2024-05-09T04:40:33.757Z,34.31
2024-05-09T04:41:29.679Z,34.37
2024-05-09T04:42:28.684Z,34.37
2024-05-09T04:43:28.696Z,34.30
2024-05-09T04:44:28.785Z,34.35
2024-05-09T04:45:28.713Z,34.34
2024-05-09T04:46:28.772Z,34.32
2024-05-09T04:47:28.808Z,34.31
2024-05-09T04:48:28.948Z,34.31
2024-05-09T04:49:28.891Z,34.32
2024-05-09T04:50:35.962Z,34.33
2024-05-09T04:51:29.857Z,34.29
2024-05-09T04:52:28.878Z,34.30
2024-05-09T04:53:28.926Z,34.30
2024-05-09T04:54:35.834Z,34.31
2024-05-09T04:55:29.922Z,34.33
2024-05-09T04:56:28.998Z,34.31
2024-05-09T04:57:28.962Z,34.29
2024-05-09T04:58:28.951Z,34.27
2024-05-09T04:59:28.998Z,34.29
2024-05-09T05:00:35.592Z,34.28
2024-05-09T05:01:30.165Z,34.31
2024-05-09T05:02:29.086Z,34.29
2024-05-09T05:03:29.240Z,34.27
2024-05-09T05:04:29.038Z,34.28
2024-05-09T05:05:29.076Z,34.28
2024-05-09T05:06:29.042Z,34.27
2024-05-09T05:07:29.057Z,34.26
2024-05-09T05:08:29.078Z,34.28
2024-05-09T05:09:29.067Z,34.26
2024-05-09T05:10:35.199Z,34.25
2024-05-09T05:11:30.168Z,34.28
2024-05-09T05:12:29.167Z,34.26
2024-05-09T05:13:29.129Z,34.27
2024-05-09T05:14:29.224Z,34.23
2024-05-09T05:15:29.163Z,34.21
2024-05-09T05:16:29.168Z,34.22
2024-05-09T05:17:29.529Z,34.27
2024-05-09T05:18:29.422Z,34.26
2024-05-09T05:19:29.382Z,34.28
2024-05-09T05:20:33.557Z,34.25
2024-05-09T05:21:30.344Z,34.25
2024-05-09T05:22:29.269Z,34.28
2024-05-09T05:23:29.316Z,34.25
2024-05-09T05:24:29.318Z,34.24
2024-05-09T05:25:29.306Z,34.26
2024-05-09T05:26:29.431Z,34.24
2024-05-09T05:27:29.325Z,34.25
2024-05-09T05:28:29.366Z,34.25
2024-05-09T05:29:29.443Z,34.24
2024-05-09T05:30:34.437Z,34.22
2024-05-09T05:31:30.548Z,34.23
2024-05-09T05:32:29.593Z,34.20
2024-05-09T05:33:29.656Z,34.19
2024-05-09T05:34:29.507Z,34.20
2024-05-09T05:35:29.598Z,34.20
2024-05-09T05:36:29.550Z,34.22
2024-05-09T05:37:29.555Z,34.20
2024-05-09T05:38:29.574Z,34.20
2024-05-09T05:39:29.654Z,34.23
2024-05-09T05:40:36.210Z,34.22
2024-05-09T05:41:30.849Z,34.24
2024-05-09T05:42:29.747Z,34.22
2024-05-09T05:43:29.778Z,34.21
2024-05-09T05:44:29.834Z,34.20
2024-05-09T05:45:29.796Z,34.19
2024-05-09T05:46:29.786Z,34.19
2024-05-09T05:47:29.991Z,34.15
2024-05-09T05:48:29.911Z,34.17
2024-05-09T05:49:29.926Z,34.17
2024-05-09T05:50:35.703Z,34.17
2024-05-09T05:51:30.891Z,34.16
2024-05-09T05:52:29.916Z,34.14
2024-05-09T05:53:30.020Z,34.14
2024-05-09T05:54:29.924Z,34.15
2024-05-09T05:55:29.959Z,34.10
2024-05-09T05:56:30.012Z,34.14
2024-05-09T05:57:29.981Z,34.14
2024-05-09T05:58:29.971Z,34.14
2024-05-09T05:59:30.111Z,34.16
2024-05-09T06:00:37.597Z,34.15
2024-05-09T06:01:31.246Z,34.13
2024-05-09T06:02:30.215Z,34.15
2024-05-09T06:03:30.248Z,34.17
2024-05-09T06:04:30.224Z,34.14
2024-05-09T06:05:30.197Z,34.11
2024-05-09T06:06:30.152Z,34.12
2024-05-09T06:07:30.159Z,34.08
2024-05-09T06:08:30.646Z,34.08
2024-05-09T06:09:30.217Z,34.04
2024-05-09T06:10:37.684Z,34.08
2024-05-09T06:11:31.438Z,34.12
2024-05-09T06:12:30.372Z,34.10
2024-05-09T06:13:30.325Z,34.10
2024-05-09T06:14:30.438Z,34.09
2024-05-09T06:15:30.364Z,34.05
2024-05-09T06:16:30.370Z,34.03
2024-05-09T06:17:30.507Z,34.04
2024-05-09T06:18:30.676Z,34.01
2024-05-09T06:19:30.732Z,34.06
2024-05-09T06:20:35.955Z,34.03
2024-05-09T06:21:31.488Z,34.02
2024-05-09T06:22:30.480Z,34.04
2024-05-09T06:23:30.519Z,34.05
2024-05-09T06:24:30.504Z,34.03
2024-05-09T06:25:30.497Z,33.99
2024-05-09T06:26:30.585Z,34.01
2024-05-09T06:27:30.508Z,34.02
2024-05-09T06:28:30.525Z,34.01
2024-05-09T06:29:30.631Z,34.00
2024-05-09T06:30:38.148Z,33.94
2024-05-09T06:31:31.605Z,33.93
2024-05-09T06:32:30.727Z,33.97
2024-05-09T06:33:30.858Z,33.92
2024-05-09T06:34:30.727Z,33.92
2024-05-09T06:35:30.927Z,33.93
2024-05-09T06:36:30.672Z,33.91
2024-05-09T06:37:30.698Z,33.88
2024-05-09T06:38:30.725Z,33.93
2024-05-09T06:39:30.696Z,33.98
2024-05-09T06:40:36.957Z,33.94
2024-05-09T06:41:31.743Z,33.91
2024-05-09T06:42:30.743Z,33.96
2024-05-09T06:43:30.761Z,33.91
2024-05-09T06:44:30.811Z,33.93
2024-05-09T06:45:30.777Z,33.90
2024-05-09T06:46:30.780Z,33.91
2024-05-09T06:47:31.002Z,33.92
2024-05-09T06:48:30.987Z,33.84
2024-05-09T06:49:30.961Z,33.85
2024-05-09T06:50:35.836Z,33.85
2024-05-09T06:51:31.850Z,34.00
2024-05-09T06:52:30.854Z,33.92
2024-05-09T06:53:30.891Z,33.75
2024-05-09T06:54:30.852Z,33.72
2024-05-09T06:55:30.926Z,33.63
2024-05-09T06:56:30.921Z,33.59
2024-05-09T06:57:31.156Z,33.53
2024-05-09T06:58:31.184Z,33.55
2024-05-09T06:59:30.955Z,33.52
2024-05-09T07:00:38.365Z,33.49
2024-05-09T07:01:31.947Z,33.37
2024-05-09T07:02:31.201Z,33.40
2024-05-09T07:03:31.053Z,33.35
2024-05-09T07:04:31.068Z,33.30
2024-05-09T07:05:30.983Z,33.30
2024-05-09T07:06:30.951Z,33.22
2024-05-09T07:07:31.021Z,33.35
2024-05-09T07:08:31.074Z,33.26
2024-05-09T07:09:31.001Z,33.36
2024-05-09T07:10:34.918Z,33.40
2024-05-09T07:11:32.071Z,33.41
2024-05-09T07:12:31.172Z,33.47
2024-05-09T07:13:31.028Z,33.51
2024-05-09T07:14:31.942Z,33.49
2024-05-09T07:15:31.058Z,33.48
2024-05-09T07:16:31.094Z,33.42
2024-05-09T07:17:31.296Z,33.31
2024-05-09T07:18:31.253Z,33.30
2024-05-09T07:19:31.172Z,33.28
2024-05-09T07:20:34.536Z,33.23
2024-05-09T07:21:31.104Z,33.19
2024-05-09T07:22:31.116Z,33.10
2024-05-09T07:23:31.169Z,32.99
2024-05-09T07:24:31.135Z,32.90
2024-05-09T07:25:31.691Z,32.85
2024-05-09T07:26:31.183Z,32.79
2024-05-09T07:27:31.169Z,32.73
2024-05-09T07:28:31.157Z,32.73
2024-05-09T07:29:31.422Z,32.78
2024-05-09T07:30:34.290Z,32.76
2024-05-09T07:31:31.214Z,32.85
2024-05-09T07:32:31.340Z,32.87
2024-05-09T07:33:31.339Z,32.83
2024-05-09T07:34:31.282Z,32.79
2024-05-09T07:35:31.650Z,32.89
2024-05-09T07:36:31.236Z,32.90
2024-05-09T07:37:31.232Z,33.06
2024-05-09T07:38:31.282Z,32.99
2024-05-09T07:39:31.250Z,33.00
2024-05-09T07:40:35.998Z,32.87
2024-05-09T07:41:31.327Z,32.86
2024-05-09T07:42:31.281Z,32.79
2024-05-09T07:43:31.327Z,32.76
2024-05-09T07:44:31.525Z,32.79
2024-05-09T07:45:48.025Z,32.89
2024-05-09T07:48:57.364Z,32.92
2024-05-09T07:50:33.279Z,32.92
2024-05-09T07:53:08.173Z,32.85
2024-05-09T07:53:33.077Z,32.84
2024-05-09T07:53:40.834Z,32.93
2024-05-09T07:54:31.542Z,32.95
2024-05-09T07:55:31.757Z,32.97
2024-05-09T07:56:32.029Z,32.99
2024-05-09T07:57:31.506Z,32.91
2024-05-09T07:58:31.480Z,32.87
2024-05-09T07:59:35.079Z,32.86
2024-05-09T08:00:32.508Z,32.97
2024-05-09T08:01:31.619Z,32.97
2024-05-09T08:02:31.621Z,33.04
2024-05-09T08:03:31.614Z,32.91
2024-05-09T08:04:31.575Z,32.83
2024-05-09T08:05:31.732Z,32.82
2024-05-09T08:06:31.538Z,32.81
2024-05-09T08:07:31.506Z,32.78
2024-05-09T08:08:31.498Z,32.81
2024-05-09T08:09:31.592Z,32.79
2024-05-09T08:10:31.663Z,32.73
2024-05-09T08:11:31.655Z,32.80
2024-05-09T08:12:31.637Z,32.61
2024-05-09T08:13:31.643Z,32.66
2024-05-09T08:14:31.690Z,32.63
2024-05-09T08:15:31.754Z,32.75
2024-05-09T08:16:31.785Z,32.67
2024-05-09T08:17:31.873Z,32.71
2024-05-09T08:18:32.250Z,32.83
2024-05-09T08:19:31.892Z,32.93
2024-05-09T08:20:35.194Z,32.90
2024-05-09T08:21:31.991Z,32.78
2024-05-09T08:22:31.918Z,32.78
2024-05-09T08:23:31.935Z,32.78
2024-05-09T08:24:31.944Z,32.78
2024-05-09T08:25:31.958Z,32.67
2024-05-09T08:26:31.955Z,32.72
2024-05-09T08:27:31.983Z,32.72
2024-05-09T08:28:32.006Z,32.79
2024-05-09T08:29:31.983Z,32.92
2024-05-09T08:30:36.575Z,33.05
2024-05-09T08:31:33.029Z,33.12
2024-05-09T08:32:32.085Z,33.04
2024-05-09T08:33:32.253Z,32.95
2024-05-09T08:34:32.061Z,32.99
2024-05-09T08:35:32.047Z,32.90
2024-05-09T08:36:32.054Z,32.81
2024-05-09T08:37:36.836Z,32.84
2024-05-09T08:38:33.053Z,32.85
2024-05-09T08:39:32.061Z,32.88
2024-05-09T08:40:35.446Z,32.99
2024-05-09T08:41:33.080Z,33.08
2024-05-09T08:42:32.139Z,32.96
2024-05-09T08:43:32.082Z,32.96
2024-05-09T08:44:32.055Z,32.96
2024-05-09T08:45:32.166Z,32.96
2024-05-09T08:46:32.117Z,32.95
2024-05-09T08:47:32.284Z,32.93
2024-05-09T08:48:32.298Z,32.97
2024-05-09T08:49:32.169Z,32.93
2024-05-09T08:50:38.331Z,32.92
2024-05-09T08:51:33.157Z,32.92
2024-05-09T08:52:32.095Z,32.89
2024-05-09T08:53:32.113Z,32.90
2024-05-09T08:54:32.129Z,32.87
2024-05-09T08:55:32.094Z,32.88
2024-05-09T08:56:32.093Z,32.87
2024-05-09T08:57:32.144Z,32.87
2024-05-09T08:58:32.130Z,32.89
2024-05-09T08:59:32.096Z,32.92
2024-05-09T09:00:36.911Z,33.00
2024-05-09T09:01:33.223Z,32.98
2024-05-09T09:02:32.196Z,32.89
2024-05-09T09:03:32.480Z,32.85
2024-05-09T09:04:32.185Z,32.76
2024-05-09T09:05:32.449Z,32.78
2024-05-09T09:06:32.157Z,32.76
2024-05-09T09:07:32.179Z,32.72
2024-05-09T09:08:32.110Z,32.71
2024-05-09T09:09:32.171Z,32.86
2024-05-09T09:10:33.215Z,32.98
2024-05-09T09:11:32.166Z,33.05
2024-05-09T09:12:32.165Z,33.06
2024-05-09T09:13:32.133Z,33.08
2024-05-09T09:14:32.113Z,32.83
2024-05-09T09:15:32.373Z,32.87
2024-05-09T09:16:32.164Z,32.92
2024-05-09T09:17:32.205Z,32.89
2024-05-09T09:18:32.340Z,32.97
2024-05-09T09:19:32.172Z,33.06
2024-05-09T09:20:36.474Z,33.03
2024-05-09T09:21:33.177Z,33.12
2024-05-09T09:22:32.139Z,33.01
2024-05-09T09:23:32.151Z,32.91
2024-05-09T09:24:32.178Z,32.77
2024-05-09T09:25:32.393Z,32.82
2024-05-09T09:26:32.134Z,32.65
2024-05-09T09:27:32.189Z,32.64
2024-05-09T09:28:32.164Z,32.59
2024-05-09T09:29:32.148Z,32.64
2024-05-09T09:30:36.985Z,32.74
2024-05-09T09:31:33.467Z,32.85
2024-05-09T09:32:32.272Z,32.77
2024-05-09T09:33:32.786Z,32.83
2024-05-09T09:34:32.494Z,32.70
2024-05-09T09:35:32.249Z,32.86
2024-05-09T09:36:32.200Z,32.80
2024-05-09T09:37:32.176Z,32.94
2024-05-09T09:38:32.170Z,32.89
2024-05-09T09:39:32.182Z,32.87
2024-05-09T09:40:34.050Z,32.83
2024-05-09T09:41:32.185Z,32.89
2024-05-09T09:42:32.192Z,32.84
2024-05-09T09:43:32.175Z,32.82
2024-05-09T09:44:32.922Z,32.82
2024-05-09T09:45:32.214Z,32.82
2024-05-09T09:46:32.236Z,32.83
2024-05-09T09:47:32.266Z,32.80
2024-05-09T09:48:32.436Z,32.78
2024-05-09T09:49:32.215Z,32.79
2024-05-09T09:50:34.784Z,32.80
2024-05-09T09:51:32.173Z,32.77
2024-05-09T09:52:32.156Z,32.78
2024-05-09T09:53:32.127Z,32.79
2024-05-09T09:54:32.143Z,32.75
2024-05-09T09:55:32.107Z,32.73
2024-05-09T09:56:32.111Z,32.77
2024-05-09T09:57:32.126Z,32.79
2024-05-09T09:58:32.197Z,32.76
2024-05-09T09:59:32.098Z,32.83
2024-05-09T10:00:33.446Z,32.83
2024-05-09T10:01:32.157Z,32.80
2024-05-09T10:02:32.309Z,32.83
2024-05-09T10:03:32.285Z,32.86
2024-05-09T10:04:32.206Z,32.81
2024-05-09T10:05:32.322Z,32.81
2024-05-09T10:06:32.134Z,32.83
2024-05-09T10:07:32.121Z,32.84
2024-05-09T10:08:32.101Z,32.81
2024-05-09T10:09:32.150Z,32.83
2024-05-09T10:10:33.243Z,32.80
2024-05-09T10:11:34.903Z,32.82
2024-05-09T10:12:33.222Z,32.83
2024-05-09T10:13:32.174Z,32.88
2024-05-09T10:14:32.147Z,32.86
2024-05-09T10:15:32.182Z,32.87
2024-05-09T10:16:32.192Z,32.86
2024-05-09T10:17:32.172Z,32.85
2024-05-09T10:18:34.285Z,32.86
2024-05-09T10:19:32.202Z,32.85
2024-05-09T10:20:32.959Z,32.85
2024-05-09T10:21:32.146Z,32.85
2024-05-09T10:22:32.143Z,32.82
2024-05-09T10:23:32.347Z,32.82
2024-05-09T10:24:32.207Z,32.84
2024-05-09T10:25:32.246Z,32.84
2024-05-09T10:26:32.205Z,32.86
2024-05-09T10:27:32.256Z,32.89
2024-05-09T10:28:32.249Z,32.88
2024-05-09T10:29:32.249Z,32.85
2024-05-09T10:30:35.982Z,32.87
2024-05-09T10:31:32.349Z,32.84
2024-05-09T10:32:32.325Z,32.81
2024-05-09T10:33:32.368Z,32.79
2024-05-09T10:34:32.356Z,32.75
2024-05-09T10:35:32.261Z,32.75
2024-05-09T10:36:32.325Z,32.68
2024-05-09T10:37:32.302Z,32.67
2024-05-09T10:38:32.275Z,32.65
2024-05-09T10:39:32.340Z,32.60
2024-05-09T10:40:32.426Z,32.58
2024-05-09T10:41:32.292Z,32.53
2024-05-09T10:42:32.305Z,32.52
2024-05-09T10:43:32.278Z,32.57
2024-05-09T10:44:32.294Z,32.63
2024-05-09T10:45:32.329Z,32.67
2024-05-09T10:46:32.289Z,32.70
2024-05-09T10:47:32.351Z,32.59
2024-05-09T10:48:32.399Z,32.66
2024-05-09T10:49:32.344Z,32.73
2024-05-09T10:50:34.415Z,32.73
2024-05-09T10:51:32.390Z,32.75
2024-05-09T10:52:32.346Z,32.69
2024-05-09T10:53:32.410Z,32.71
2024-05-09T10:54:32.490Z,32.69
2024-05-09T10:55:32.472Z,32.67
2024-05-09T10:56:32.417Z,32.66
2024-05-09T10:57:32.465Z,32.72
2024-05-09T10:58:32.493Z,32.75
2024-05-09T10:59:32.497Z,32.68
2024-05-09T11:00:35.898Z,32.79
2024-05-09T11:01:32.660Z,32.90
2024-05-09T11:02:32.823Z,32.81
2024-05-09T11:03:32.655Z,32.75
2024-05-09T11:04:32.549Z,32.78
2024-05-09T11:05:32.621Z,32.71
2024-05-09T11:06:32.569Z,32.77
2024-05-09T11:07:32.568Z,32.76
2024-05-09T11:08:32.820Z,32.80
2024-05-09T11:09:32.550Z,32.80
2024-05-09T11:10:34.364Z,32.83
2024-05-09T11:11:32.527Z,32.79
2024-05-09T11:12:32.530Z,32.68
2024-05-09T11:13:32.520Z,32.68
2024-05-09T11:14:32.536Z,32.69
2024-05-09T11:15:32.550Z,32.63
2024-05-09T11:16:32.681Z,32.58
2024-05-09T11:17:32.802Z,32.57
2024-05-09T11:18:36.520Z,32.88
2024-05-09T11:19:33.830Z,32.80
2024-05-09T11:20:35.037Z,32.77
2024-05-09T11:21:32.799Z,32.78
2024-05-09T11:22:32.733Z,32.85
2024-05-09T11:23:32.786Z,32.81
2024-05-09T11:24:32.830Z,32.80
2024-05-09T11:25:32.717Z,32.83
2024-05-09T11:26:32.734Z,32.88
2024-05-09T11:27:32.770Z,32.71
2024-05-09T11:28:32.765Z,32.74
2024-05-09T11:29:32.749Z,32.68
2024-05-09T11:30:32.842Z,32.64
2024-05-09T11:31:33.050Z,32.80
2024-05-09T11:32:33.026Z,32.75
2024-05-09T11:33:32.792Z,32.63
2024-05-09T11:34:32.911Z,32.75
2024-05-09T11:35:32.746Z,32.66
2024-05-09T11:36:32.905Z,32.66
2024-05-09T11:37:35.410Z,32.74
2024-05-09T11:38:32.751Z,32.76
2024-05-09T11:39:32.879Z,32.76
2024-05-09T11:40:34.553Z,32.80
2024-05-09T11:41:32.772Z,32.66
2024-05-09T11:42:32.870Z,32.63
2024-05-09T11:43:32.863Z,32.59
2024-05-09T11:44:32.732Z,32.68
2024-05-09T11:45:32.841Z,32.65
2024-05-09T11:46:32.819Z,32.71
2024-05-09T11:47:32.957Z,32.61
2024-05-09T11:48:33.115Z,32.65
2024-05-09T11:49:33.258Z,32.73
2024-05-09T11:50:35.861Z,32.71
2024-05-09T11:51:33.140Z,32.67
2024-05-09T11:52:33.100Z,32.78
2024-05-09T11:53:33.088Z,32.79
2024-05-09T11:54:33.095Z,32.79
2024-05-09T11:55:33.137Z,32.73
2024-05-09T11:56:33.077Z,32.79
2024-05-09T11:57:33.144Z,32.77
2024-05-09T11:58:33.071Z,32.75
2024-05-09T11:59:33.087Z,32.68
2024-05-09T12:00:37.043Z,32.67
2024-05-09T12:01:33.210Z,32.71
2024-05-09T12:02:33.174Z,32.68
2024-05-09T12:03:33.231Z,32.65
2024-05-09T12:04:33.232Z,32.56
2024-05-09T12:05:33.984Z,32.60
2024-05-09T12:06:33.149Z,32.47
2024-05-09T12:07:33.078Z,32.57
2024-05-09T12:08:33.120Z,32.60
2024-05-09T12:09:33.102Z,32.65
2024-05-09T12:10:35.542Z,32.60
2024-05-09T12:11:33.142Z,32.59
2024-05-09T12:12:35.472Z,32.59
2024-05-09T12:13:33.167Z,32.60
2024-05-09T12:14:33.063Z,32.53
2024-05-09T12:15:33.247Z,32.43
2024-05-09T12:16:33.357Z,32.43
2024-05-09T12:17:33.149Z,32.46
2024-05-09T12:18:33.147Z,32.53
2024-05-09T12:19:33.146Z,32.42
2024-05-09T12:20:37.314Z,32.51
2024-05-09T12:21:34.083Z,32.50
2024-05-09T12:22:33.039Z,32.51
2024-05-09T12:23:33.041Z,32.49
2024-05-09T12:24:33.092Z,32.45
2024-05-09T12:25:33.038Z,32.42
2024-05-09T12:26:33.052Z,32.45
2024-05-09T12:27:33.028Z,32.39
2024-05-09T12:28:33.096Z,32.42
2024-05-09T12:29:34.988Z,32.35
2024-05-09T12:30:37.988Z,32.40
2024-05-09T12:31:34.015Z,32.44
2024-05-09T12:32:33.079Z,32.38
2024-05-09T12:33:33.088Z,32.43
2024-05-09T12:34:33.005Z,32.39
2024-05-09T12:35:33.128Z,32.40
2024-05-09T12:36:33.023Z,32.36
2024-05-09T12:37:32.959Z,32.30
2024-05-09T12:38:32.942Z,32.31
2024-05-09T12:39:33.007Z,32.27
2024-05-09T12:40:36.591Z,32.24
2024-05-09T12:41:32.913Z,32.26
2024-05-09T12:42:33.893Z,32.29
2024-05-09T12:43:32.981Z,32.28
2024-05-09T12:44:32.916Z,32.32
2024-05-09T12:45:33.012Z,32.30
2024-05-09T12:46:33.081Z,32.28
2024-05-09T12:47:33.029Z,32.32
2024-05-09T12:48:33.067Z,32.36
2024-05-09T12:49:33.070Z,32.35
2024-05-09T12:50:34.447Z,32.28
2024-05-09T12:51:32.954Z,32.29
2024-05-09T12:52:32.874Z,32.30
2024-05-09T12:53:32.864Z,32.31
2024-05-09T12:54:32.907Z,32.28
2024-05-09T12:55:40.946Z,32.27
2024-05-09T12:56:33.858Z,32.25